PWSweather.com
Personal Weather Stations
Station Observations
WODONGA
Wodonga, WodongaAU 3690

WodongaWodongaAU 3690

Lat: -36.121, Lon: 146.87

Elevation: 541

Station Type: Weather Station

http://www.wodongaweather.net

High Low Average
Temperature 67.1°F19.5°F 38.5°F3.6°F 51.4°F10.8°F
Dew Point 51.4°F10.8°F 35.8°F2.1°F 43.7°F6.5°F
Winds 9.4 mph NW15.1 mph NW Calm Calm 2.9 mph 4.7 mph
Wind Gusts 13.6 mph21.9 mph -- 4.4 mph7.1 mph
Humidity 92% 53% 76%
Pressure 30.22 in1023.40 in 30.10 in1019.30 in -
Precipitation 0.00 in0.00 in - -
Hour Temp Dew Point Humidity Winds Wind Gusts Pressure Precip Precip Rate Daily Precip Total
12:00 AM 45.1°F7.3°C 40.9°F4.9°C 85% 0.7 mph SW1.1 kmh SW 1.6 mph2.6 kmh 30.10 in1019.3 mb 0.00 in0.0 mm 0.00 in0.0 mm 0.00 in0.0 mm
12:05 AM 45.0°F7.2°C 40.7°F4.8°C 85% 0.6 mph S1.0 kmh S 1.6 mph2.6 kmh 30.11 in1019.6 mb 0.00 in0.0 mm 0.00 in0.0 mm 0.00 in0.0 mm
12:10 AM 44.6°F7.0°C 40.4°F4.7°C 85% 0.8 mph S1.3 kmh S 1.6 mph2.6 kmh 30.10 in1019.3 mb 0.00 in0.0 mm 0.00 in0.0 mm 0.00 in0.0 mm
12:15 AM 44.6°F7.0°C 40.4°F4.7°C 85% 1.3 mph S2.1 kmh S 1.6 mph2.6 kmh 30.11 in1019.6 mb 0.00 in0.0 mm 0.00 in0.0 mm 0.00 in0.0 mm
12:20 AM 44.4°F6.9°C 40.2°F4.6°C 85% 1.2 mph S1.9 kmh S 1.6 mph2.6 kmh 30.11 in1019.6 mb 0.00 in0.0 mm 0.00 in0.0 mm 0.00 in0.0 mm
12:25 AM 44.2°F6.8°C 40.0°F4.4°C 85% 1.3 mph WSW2.1 kmh WSW 2.2 mph3.5 kmh 30.11 in1019.6 mb 0.00 in0.0 mm 0.00 in0.0 mm 0.00 in0.0 mm
12:30 AM 43.9°F6.6°C 40.0°F4.4°C 86% 1.2 mph NW1.9 kmh NW 2.2 mph3.5 kmh 30.12 in1020.0 mb 0.00 in0.0 mm 0.00 in0.0 mm 0.00 in0.0 mm
12:35 AM 44.1°F6.7°C 40.1°F4.5°C 86% 0.4 mph W0.6 kmh W 1.6 mph2.6 kmh 30.12 in1020.0 mb 0.00 in0.0 mm 0.00 in0.0 mm 0.00 in0.0 mm
12:40 AM 43.9°F6.6°C 40.0°F4.4°C 86% Calm Calm -- 30.12 in1020.0 mb 0.00 in0.0 mm 0.00 in0.0 mm 0.00 in0.0 mm
12:45 AM 43.5°F6.4°C 39.6°F4.2°C 86% 0.3 mph SW0.5 kmh SW 0.7 mph1.1 kmh 30.12 in1020.0 mb 0.00 in0.0 mm 0.00 in0.0 mm 0.00 in0.0 mm
12:50 AM 43.5°F6.4°C 39.9°F4.4°C 87% 0.4 mph WSW0.6 kmh WSW 0.7 mph1.1 kmh 30.12 in1020.0 mb 0.00 in0.0 mm 0.00 in0.0 mm 0.00 in0.0 mm
12:55 AM 43.3°F6.3°C 39.4°F4.1°C 86% 0.4 mph SW0.6 kmh SW 0.7 mph1.1 kmh 30.12 in1020.0 mb 0.00 in0.0 mm 0.00 in0.0 mm 0.00 in0.0 mm
01:00 AM 43.3°F6.3°C 39.7°F4.3°C 87% 0.8 mph S1.3 kmh S 2.2 mph3.5 kmh 30.12 in1020.0 mb 0.00 in0.0 mm 0.00 in0.0 mm 0.00 in0.0 mm
01:05 AM 43.3°F6.3°C 39.7°F4.3°C 87% 1.4 mph S2.3 kmh S 2.2 mph3.5 kmh 30.13 in1020.3 mb 0.00 in0.0 mm 0.00 in0.0 mm 0.00 in0.0 mm
01:10 AM 43.3°F6.3°C 39.7°F4.3°C 87% 1.6 mph S2.6 kmh S 2.2 mph3.5 kmh 30.12 in1020.0 mb 0.00 in0.0 mm 0.00 in0.0 mm 0.00 in0.0 mm
01:15 AM 43.3°F6.3°C 39.7°F4.3°C 87% 1.7 mph SSE2.7 kmh SSE 2.2 mph3.5 kmh 30.12 in1020.0 mb 0.00 in0.0 mm 0.00 in0.0 mm 0.00 in0.0 mm
01:20 AM 43.3°F6.3°C 39.7°F4.3°C 87% 1.6 mph S2.6 kmh S 2.2 mph3.5 kmh 30.12 in1020.0 mb 0.00 in0.0 mm 0.00 in0.0 mm 0.00 in0.0 mm
01:25 AM 43.2°F6.2°C 39.6°F4.2°C 87% 1.1 mph S1.8 kmh S 1.6 mph2.6 kmh 30.12 in1020.0 mb 0.00 in0.0 mm 0.00 in0.0 mm 0.00 in0.0 mm
01:30 AM 42.8°F6.0°C 39.2°F4.0°C 87% 0.8 mph N1.3 kmh N 2.2 mph3.5 kmh 30.12 in1020.0 mb 0.00 in0.0 mm 0.00 in0.0 mm 0.00 in0.0 mm
01:35 AM 42.6°F5.9°C 39.0°F3.9°C 87% 1.0 mph N1.6 kmh N 2.2 mph3.5 kmh 30.12 in1020.0 mb 0.00 in0.0 mm 0.00 in0.0 mm 0.00 in0.0 mm
01:40 AM 42.4°F5.8°C 39.1°F3.9°C 88% 1.0 mph N1.6 kmh N 2.2 mph3.5 kmh 30.12 in1020.0 mb 0.00 in0.0 mm 0.00 in0.0 mm 0.00 in0.0 mm
01:45 AM 42.4°F5.8°C 39.1°F3.9°C 88% 0.7 mph S1.1 kmh S 1.6 mph2.6 kmh 30.12 in1020.0 mb 0.00 in0.0 mm 0.00 in0.0 mm 0.00 in0.0 mm
01:50 AM 42.4°F5.8°C 39.1°F3.9°C 88% 0.3 mph S0.5 kmh S 1.6 mph2.6 kmh 30.12 in1020.0 mb 0.00 in0.0 mm 0.00 in0.0 mm 0.00 in0.0 mm
01:55 AM 42.1°F5.6°C 38.8°F3.8°C 88% 0.3 mph S0.5 kmh S 0.7 mph1.1 kmh 30.12 in1020.0 mb 0.00 in0.0 mm 0.00 in0.0 mm 0.00 in0.0 mm
02:00 AM 41.9°F5.5°C 38.6°F3.7°C 88% 0.3 mph S0.5 kmh S 0.7 mph1.1 kmh 30.12 in1020.0 mb 0.00 in0.0 mm 0.00 in0.0 mm 0.00 in0.0 mm
02:05 AM 41.9°F5.5°C 38.6°F3.7°C 88% 0.3 mph S0.5 kmh S 1.6 mph2.6 kmh 30.12 in1020.0 mb 0.00 in0.0 mm 0.00 in0.0 mm 0.00 in0.0 mm
02:10 AM 41.9°F5.5°C 38.6°F3.7°C 88% 0.7 mph S1.1 kmh S 1.6 mph2.6 kmh 30.12 in1020.0 mb 0.00 in0.0 mm 0.00 in0.0 mm 0.00 in0.0 mm
02:15 AM 41.9°F5.5°C 38.6°F3.7°C 88% 0.9 mph S1.4 kmh S 1.6 mph2.6 kmh 30.12 in1020.0 mb 0.00 in0.0 mm 0.00 in0.0 mm 0.00 in0.0 mm
02:20 AM 41.7°F5.4°C 38.4°F3.6°C 88% 1.0 mph S1.6 kmh S 2.2 mph3.5 kmh 30.12 in1020.0 mb 0.00 in0.0 mm 0.00 in0.0 mm 0.00 in0.0 mm
02:25 AM 41.7°F5.4°C 38.4°F3.6°C 88% 1.2 mph SE1.9 kmh SE 2.2 mph3.5 kmh 30.12 in1020.0 mb 0.00 in0.0 mm 0.00 in0.0 mm 0.00 in0.0 mm
02:30 AM 41.7°F5.4°C 38.4°F3.6°C 88% 1.7 mph ESE2.7 kmh ESE 3.1 mph5.0 kmh 30.12 in1020.0 mb 0.00 in0.0 mm 0.00 in0.0 mm 0.00 in0.0 mm
02:35 AM 41.5°F5.3°C 38.3°F3.5°C 88% 1.6 mph E2.6 kmh E 3.1 mph5.0 kmh 30.12 in1020.0 mb 0.00 in0.0 mm 0.00 in0.0 mm 0.00 in0.0 mm
02:40 AM 41.2°F5.1°C 37.9°F3.3°C 88% 1.1 mph S1.8 kmh S 2.2 mph3.5 kmh 30.12 in1020.0 mb 0.00 in0.0 mm 0.00 in0.0 mm 0.00 in0.0 mm
02:45 AM 41.4°F5.2°C 38.4°F3.6°C 89% 1.5 mph S2.4 kmh S 2.2 mph3.5 kmh 30.12 in1020.0 mb 0.00 in0.0 mm 0.00 in0.0 mm 0.00 in0.0 mm
02:50 AM 41.4°F5.2°C 38.4°F3.6°C 89% 1.3 mph SSW2.1 kmh SSW 2.2 mph3.5 kmh 30.12 in1020.0 mb 0.00 in0.0 mm 0.00 in0.0 mm 0.00 in0.0 mm
02:55 AM 41.4°F5.2°C 38.4°F3.6°C 89% 1.1 mph WSW1.8 kmh WSW 1.6 mph2.6 kmh 30.13 in1020.3 mb 0.00 in0.0 mm 0.00 in0.0 mm 0.00 in0.0 mm
03:00 AM 41.4°F5.2°C 38.4°F3.6°C 89% 1.6 mph SSW2.6 kmh SSW 2.2 mph3.5 kmh 30.12 in1020.0 mb 0.00 in0.0 mm 0.00 in0.0 mm 0.00 in0.0 mm
03:05 AM 41.5°F5.3°C 38.5°F3.6°C 89% 1.2 mph S1.9 kmh S 2.2 mph3.5 kmh 30.12 in1020.0 mb 0.00 in0.0 mm 0.00 in0.0 mm 0.00 in0.0 mm
03:10 AM 41.4°F5.2°C 38.4°F3.6°C 89% 1.3 mph W2.1 kmh W 3.1 mph5.0 kmh 30.13 in1020.3 mb 0.00 in0.0 mm 0.00 in0.0 mm 0.00 in0.0 mm
03:15 AM 41.4°F5.2°C 38.4°F3.6°C 89% 2.0 mph W3.2 kmh W 3.1 mph5.0 kmh 30.13 in1020.3 mb 0.00 in0.0 mm 0.00 in0.0 mm 0.00 in0.0 mm
03:20 AM 41.5°F5.3°C 38.5°F3.6°C 89% 1.3 mph WNW2.1 kmh WNW 2.2 mph3.5 kmh 30.13 in1020.3 mb 0.00 in0.0 mm 0.00 in0.0 mm 0.00 in0.0 mm
03:25 AM 41.5°F5.3°C 38.5°F3.6°C 89% 0.5 mph WNW0.8 kmh WNW 1.6 mph2.6 kmh 30.13 in1020.3 mb 0.00 in0.0 mm 0.00 in0.0 mm 0.00 in0.0 mm
03:30 AM 41.4°F5.2°C 38.4°F3.6°C 89% 0.4 mph W0.6 kmh W 2.2 mph3.5 kmh 30.12 in1020.0 mb 0.00 in0.0 mm 0.00 in0.0 mm 0.00 in0.0 mm
03:35 AM 41.4°F5.2°C 38.4°F3.6°C 89% 1.2 mph W1.9 kmh W 2.2 mph3.5 kmh 30.13 in1020.3 mb 0.00 in0.0 mm 0.00 in0.0 mm 0.00 in0.0 mm
03:40 AM 41.2°F5.1°C 38.2°F3.4°C 89% 1.9 mph SE3.1 kmh SE 2.2 mph3.5 kmh 30.12 in1020.0 mb 0.00 in0.0 mm 0.00 in0.0 mm 0.00 in0.0 mm
03:45 AM 40.8°F4.9°C 37.8°F3.2°C 89% 1.3 mph S2.1 kmh S 2.2 mph3.5 kmh 30.13 in1020.3 mb 0.00 in0.0 mm 0.00 in0.0 mm 0.00 in0.0 mm
03:50 AM 40.6°F4.8°C 37.7°F3.2°C 89% 0.8 mph SW1.3 kmh SW 1.6 mph2.6 kmh 30.13 in1020.3 mb 0.00 in0.0 mm 0.00 in0.0 mm 0.00 in0.0 mm
03:55 AM 40.6°F4.8°C 37.7°F3.2°C 89% 0.7 mph SW1.1 kmh SW 1.6 mph2.6 kmh 30.12 in1020.0 mb 0.00 in0.0 mm 0.00 in0.0 mm 0.00 in0.0 mm
04:00 AM 40.6°F4.8°C 37.7°F3.2°C 89% 0.3 mph SSW0.5 kmh SSW 1.6 mph2.6 kmh 30.13 in1020.3 mb 0.00 in0.0 mm 0.00 in0.0 mm 0.00 in0.0 mm
04:05 AM 40.6°F4.8°C 37.7°F3.2°C 89% Calm Calm -- 30.13 in1020.3 mb 0.00 in0.0 mm 0.00 in0.0 mm 0.00 in0.0 mm
04:10 AM 40.5°F4.7°C 37.5°F3.1°C 89% Calm Calm -- 30.13 in1020.3 mb 0.00 in0.0 mm 0.00 in0.0 mm 0.00 in0.0 mm
04:15 AM 40.5°F4.7°C 37.5°F3.1°C 89% 0.4 mph ESE0.6 kmh ESE 2.2 mph3.5 kmh 30.13 in1020.3 mb 0.00 in0.0 mm 0.00 in0.0 mm 0.00 in0.0 mm
04:20 AM 40.3°F4.6°C 37.3°F2.9°C 89% 0.6 mph ESE1.0 kmh ESE 2.2 mph3.5 kmh 30.13 in1020.3 mb 0.00 in0.0 mm 0.00 in0.0 mm 0.00 in0.0 mm
04:25 AM 40.1°F4.5°C 37.1°F2.8°C 89% 0.2 mph SSE0.3 kmh SSE 0.7 mph1.1 kmh 30.14 in1020.7 mb 0.00 in0.0 mm 0.00 in0.0 mm 0.00 in0.0 mm
04:30 AM 39.9°F4.4°C 36.9°F2.7°C 89% 0.7 mph SW1.1 kmh SW 1.6 mph2.6 kmh 30.14 in1020.7 mb 0.00 in0.0 mm 0.00 in0.0 mm 0.00 in0.0 mm
04:35 AM 40.1°F4.5°C 37.4°F3.0°C 90% 0.6 mph SW1.0 kmh SW 1.6 mph2.6 kmh 30.14 in1020.7 mb 0.00 in0.0 mm 0.00 in0.0 mm 0.00 in0.0 mm
04:40 AM 39.9°F4.4°C 36.9°F2.7°C 89% 0.2 mph S0.3 kmh S 0.7 mph1.1 kmh 30.14 in1020.7 mb 0.00 in0.0 mm 0.00 in0.0 mm 0.00 in0.0 mm
04:45 AM 39.9°F4.4°C 36.9°F2.7°C 89% 0.5 mph S0.8 kmh S 1.6 mph2.6 kmh 30.14 in1020.7 mb 0.00 in0.0 mm 0.00 in0.0 mm 0.00 in0.0 mm
04:50 AM 39.7°F4.3°C 36.8°F2.7°C 89% 0.3 mph S0.5 kmh S 1.6 mph2.6 kmh 30.15 in1021.0 mb 0.00 in0.0 mm 0.00 in0.0 mm 0.00 in0.0 mm
04:55 AM 39.6°F4.2°C 36.6°F2.6°C 89% 0.6 mph S1.0 kmh S 2.2 mph3.5 kmh 30.15 in1021.0 mb 0.00 in0.0 mm 0.00 in0.0 mm 0.00 in0.0 mm
05:00 AM 39.6°F4.2°C 36.6°F2.6°C 89% 0.6 mph S1.0 kmh S 2.2 mph3.5 kmh 30.15 in1021.0 mb 0.00 in0.0 mm 0.00 in0.0 mm 0.00 in0.0 mm
05:05 AM 39.4°F4.1°C 36.7°F2.6°C 90% 0.5 mph S0.8 kmh S 1.6 mph2.6 kmh 30.15 in1021.0 mb 0.00 in0.0 mm 0.00 in0.0 mm 0.00 in0.0 mm
05:10 AM 39.4°F4.1°C 36.7°F2.6°C 90% 0.9 mph SSW1.4 kmh SSW 1.6 mph2.6 kmh 30.15 in1021.0 mb 0.00 in0.0 mm 0.00 in0.0 mm 0.00 in0.0 mm
05:15 AM 39.2°F4.0°C 36.5°F2.5°C 90% 0.9 mph SW1.4 kmh SW 1.6 mph2.6 kmh 30.15 in1021.0 mb 0.00 in0.0 mm 0.00 in0.0 mm 0.00 in0.0 mm
05:20 AM 39.2°F4.0°C 36.5°F2.5°C 90% 0.9 mph S1.4 kmh S 1.6 mph2.6 kmh 30.16 in1021.3 mb 0.00 in0.0 mm 0.00 in0.0 mm 0.00 in0.0 mm
05:25 AM 39.2°F4.0°C 36.5°F2.5°C 90% 0.5 mph S0.8 kmh S 1.6 mph2.6 kmh 30.16 in1021.3 mb 0.00 in0.0 mm 0.00 in0.0 mm 0.00 in0.0 mm
05:30 AM 39.2°F4.0°C 36.5°F2.5°C 90% Calm Calm 0.7 mph1.1 kmh 30.16 in1021.3 mb 0.00 in0.0 mm 0.00 in0.0 mm 0.00 in0.0 mm
05:35 AM 39.2°F4.0°C 36.5°F2.5°C 90% 0.5 mph WSW0.8 kmh WSW 2.2 mph3.5 kmh 30.16 in1021.3 mb 0.00 in0.0 mm 0.00 in0.0 mm 0.00 in0.0 mm
05:40 AM 39.2°F4.0°C 36.5°F2.5°C 90% 1.3 mph WSW2.1 kmh WSW 2.2 mph3.5 kmh 30.16 in1021.3 mb 0.00 in0.0 mm 0.00 in0.0 mm 0.00 in0.0 mm
05:45 AM 39.2°F4.0°C 36.5°F2.5°C 90% 1.0 mph WSW1.6 kmh WSW 2.2 mph3.5 kmh 30.16 in1021.3 mb 0.00 in0.0 mm 0.00 in0.0 mm 0.00 in0.0 mm
05:50 AM 39.2°F4.0°C 36.5°F2.5°C 90% 0.2 mph SSW0.3 kmh SSW 0.7 mph1.1 kmh 30.17 in1021.7 mb 0.00 in0.0 mm 0.00 in0.0 mm 0.00 in0.0 mm
05:55 AM 39.2°F4.0°C 36.5°F2.5°C 90% 0.1 mph SW0.2 kmh SW 0.7 mph1.1 kmh 30.17 in1021.7 mb 0.00 in0.0 mm 0.00 in0.0 mm 0.00 in0.0 mm
06:00 AM 39.2°F4.0°C 36.5°F2.5°C 90% 0.4 mph SE0.6 kmh SE 2.2 mph3.5 kmh 30.17 in1021.7 mb 0.00 in0.0 mm 0.00 in0.0 mm 0.00 in0.0 mm
06:05 AM 39.2°F4.0°C 36.5°F2.5°C 90% 1.1 mph SE1.8 kmh SE 2.2 mph3.5 kmh 30.17 in1021.7 mb 0.00 in0.0 mm 0.00 in0.0 mm 0.00 in0.0 mm
06:10 AM 39.0°F3.9°C 36.3°F2.4°C 90% 1.2 mph SE1.9 kmh SE 2.2 mph3.5 kmh 30.17 in1021.7 mb 0.00 in0.0 mm 0.00 in0.0 mm 0.00 in0.0 mm
06:15 AM 39.0°F3.9°C 36.3°F2.4°C 90% 0.5 mph SSE0.8 kmh SSE 1.6 mph2.6 kmh 30.17 in1021.7 mb 0.00 in0.0 mm 0.00 in0.0 mm 0.00 in0.0 mm
06:20 AM 38.8°F3.8°C 36.2°F2.3°C 90% 0.1 mph SW0.2 kmh SW 0.7 mph1.1 kmh 30.17 in1021.7 mb 0.00 in0.0 mm 0.00 in0.0 mm 0.00 in0.0 mm
06:25 AM 38.8°F3.8°C 36.2°F2.3°C 90% Calm Calm -- 30.18 in1022.0 mb 0.00 in0.0 mm 0.00 in0.0 mm 0.00 in0.0 mm
06:30 AM 38.7°F3.7°C 36.0°F2.2°C 90% Calm Calm -- 30.18 in1022.0 mb 0.00 in0.0 mm 0.00 in0.0 mm 0.00 in0.0 mm
06:35 AM 38.8°F3.8°C 36.2°F2.3°C 90% Calm Calm -- 30.19 in1022.4 mb 0.00 in0.0 mm 0.00 in0.0 mm 0.00 in0.0 mm
06:40 AM 38.7°F3.7°C 36.0°F2.2°C 90% Calm Calm -- 30.18 in1022.0 mb 0.00 in0.0 mm 0.00 in0.0 mm 0.00 in0.0 mm
06:45 AM 38.5°F3.6°C 35.8°F2.1°C 90% Calm Calm 0.7 mph1.1 kmh 30.18 in1022.0 mb 0.00 in0.0 mm 0.00 in0.0 mm 0.00 in0.0 mm
06:50 AM 38.7°F3.7°C 36.3°F2.4°C 91% Calm Calm 0.7 mph1.1 kmh 30.18 in1022.0 mb 0.00 in0.0 mm 0.00 in0.0 mm 0.00 in0.0 mm
06:55 AM 38.8°F3.8°C 36.4°F2.4°C 91% 0.2 mph S0.3 kmh S 0.7 mph1.1 kmh 30.18 in1022.0 mb 0.00 in0.0 mm 0.00 in0.0 mm 0.00 in0.0 mm
07:00 AM 38.8°F3.8°C 36.4°F2.4°C 91% 0.3 mph S0.5 kmh S 0.7 mph1.1 kmh 30.18 in1022.0 mb 0.00 in0.0 mm 0.00 in0.0 mm 0.00 in0.0 mm
07:05 AM 39.0°F3.9°C 36.6°F2.6°C 91% 0.6 mph E1.0 kmh E 1.6 mph2.6 kmh 30.19 in1022.4 mb 0.00 in0.0 mm 0.00 in0.0 mm 0.00 in0.0 mm
07:10 AM 39.2°F4.0°C 36.8°F2.7°C 91% 0.9 mph E1.4 kmh E 1.6 mph2.6 kmh 30.19 in1022.4 mb 0.00 in0.0 mm 0.00 in0.0 mm 0.00 in0.0 mm
07:15 AM 39.2°F4.0°C 36.8°F2.7°C 91% 1.2 mph SSE1.9 kmh SSE 1.6 mph2.6 kmh 30.19 in1022.4 mb 0.00 in0.0 mm 0.00 in0.0 mm 0.00 in0.0 mm
07:20 AM 39.6°F4.2°C 37.2°F2.9°C 91% 1.4 mph S2.3 kmh S 1.6 mph2.6 kmh 30.20 in1022.7 mb 0.00 in0.0 mm 0.00 in0.0 mm 0.00 in0.0 mm
07:25 AM 39.7°F4.3°C 37.3°F2.9°C 91% 1.5 mph SE2.4 kmh SE 2.2 mph3.5 kmh 30.20 in1022.7 mb 0.00 in0.0 mm 0.00 in0.0 mm 0.00 in0.0 mm
07:30 AM 40.3°F4.6°C 38.1°F3.4°C 92% 1.7 mph SE2.7 kmh SE 2.2 mph3.5 kmh 30.20 in1022.7 mb 0.00 in0.0 mm 0.00 in0.0 mm 0.00 in0.0 mm
07:35 AM 40.6°F4.8°C 38.5°F3.6°C 92% 1.6 mph SE2.6 kmh SE 2.2 mph3.5 kmh 30.20 in1022.7 mb 0.00 in0.0 mm 0.00 in0.0 mm 0.00 in0.0 mm
07:40 AM 41.0°F5.0°C 38.9°F3.8°C 92% 1.5 mph SE2.4 kmh SE 2.2 mph3.5 kmh 30.20 in1022.7 mb 0.00 in0.0 mm 0.00 in0.0 mm 0.00 in0.0 mm
07:45 AM 41.4°F5.2°C 39.2°F4.0°C 92% 1.1 mph SE1.8 kmh SE 2.2 mph3.5 kmh 30.20 in1022.7 mb 0.00 in0.0 mm 0.00 in0.0 mm 0.00 in0.0 mm
07:50 AM 41.9°F5.5°C 39.7°F4.3°C 92% 1.2 mph S1.9 kmh S 2.2 mph3.5 kmh 30.20 in1022.7 mb 0.00 in0.0 mm 0.00 in0.0 mm 0.00 in0.0 mm
07:55 AM 42.4°F5.8°C 40.3°F4.6°C 92% 1.8 mph SSE2.9 kmh SSE 2.2 mph3.5 kmh 30.20 in1022.7 mb 0.00 in0.0 mm 0.00 in0.0 mm 0.00 in0.0 mm
08:00 AM 42.8°F6.0°C 40.6°F4.8°C 92% 2.0 mph SSE3.2 kmh SSE 3.1 mph5.0 kmh 30.21 in1023.0 mb 0.00 in0.0 mm 0.00 in0.0 mm 0.00 in0.0 mm
08:05 AM 43.3°F6.3°C 40.9°F4.9°C 91% 2.2 mph S3.5 kmh S 3.1 mph5.0 kmh 30.20 in1022.7 mb 0.00 in0.0 mm 0.00 in0.0 mm 0.00 in0.0 mm
08:10 AM 43.9°F6.6°C 41.4°F5.2°C 91% 2.0 mph SSE3.2 kmh SSE 2.2 mph3.5 kmh 30.20 in1022.7 mb 0.00 in0.0 mm 0.00 in0.0 mm 0.00 in0.0 mm
08:15 AM 44.6°F7.0°C 42.1°F5.6°C 91% 2.1 mph SE3.4 kmh SE 3.8 mph6.1 kmh 30.20 in1022.7 mb 0.00 in0.0 mm 0.00 in0.0 mm 0.00 in0.0 mm
08:20 AM 45.3°F7.4°C 42.9°F6.1°C 91% 2.7 mph ESE4.3 kmh ESE 5.4 mph8.7 kmh 30.20 in1022.7 mb 0.00 in0.0 mm 0.00 in0.0 mm 0.00 in0.0 mm
08:25 AM 46.0°F7.8°C 43.6°F6.4°C 91% 4.0 mph ESE6.4 kmh ESE 6.9 mph11.1 kmh 30.21 in1023.0 mb 0.00 in0.0 mm 0.00 in0.0 mm 0.00 in0.0 mm
08:30 AM 46.6°F8.1°C 43.8°F6.6°C 90% 5.4 mph ESE8.7 kmh ESE 7.6 mph12.2 kmh 30.21 in1023.0 mb 0.00 in0.0 mm 0.00 in0.0 mm 0.00 in0.0 mm
08:35 AM 47.3°F8.5°C 44.2°F6.8°C 89% 5.5 mph ESE8.9 kmh ESE 7.6 mph12.2 kmh 30.21 in1023.0 mb 0.00 in0.0 mm 0.00 in0.0 mm 0.00 in0.0 mm
08:40 AM 47.8°F8.8°C 44.8°F7.1°C 89% 5.1 mph E8.2 kmh E 6.0 mph9.7 kmh 30.21 in1023.0 mb 0.00 in0.0 mm 0.00 in0.0 mm 0.00 in0.0 mm
08:45 AM 48.4°F9.1°C 45.0°F7.2°C 88% 5.4 mph E8.7 kmh E 6.0 mph9.7 kmh 30.21 in1023.0 mb 0.00 in0.0 mm 0.00 in0.0 mm 0.00 in0.0 mm
08:50 AM 49.1°F9.5°C 45.4°F7.4°C 87% 5.1 mph E8.2 kmh E 6.0 mph9.7 kmh 30.21 in1023.0 mb 0.00 in0.0 mm 0.00 in0.0 mm 0.00 in0.0 mm
08:55 AM 49.8°F9.9°C 46.1°F7.8°C 87% 4.3 mph E6.9 kmh E 5.4 mph8.7 kmh 30.21 in1023.0 mb 0.00 in0.0 mm 0.00 in0.0 mm 0.00 in0.0 mm
09:00 AM 50.5°F10.3°C 46.5°F8.1°C 86% 4.3 mph E6.9 kmh E 6.0 mph9.7 kmh 30.21 in1023.0 mb 0.00 in0.0 mm 0.00 in0.0 mm 0.00 in0.0 mm
09:05 AM 51.1°F10.6°C 46.4°F8.0°C 84% 4.3 mph E6.9 kmh E 6.0 mph9.7 kmh 30.22 in1023.4 mb 0.00 in0.0 mm 0.00 in0.0 mm 0.00 in0.0 mm
09:10 AM 52.0°F11.1°C 46.7°F8.2°C 82% 4.8 mph E7.7 kmh E 6.9 mph11.1 kmh 30.21 in1023.0 mb 0.00 in0.0 mm 0.00 in0.0 mm 0.00 in0.0 mm
09:15 AM 52.7°F11.5°C 47.0°F8.3°C 81% 5.5 mph E8.9 kmh E 6.9 mph11.1 kmh 30.21 in1023.0 mb 0.00 in0.0 mm 0.00 in0.0 mm 0.00 in0.0 mm
09:20 AM 53.4°F11.9°C 47.4°F8.6°C 80% 5.9 mph E9.5 kmh E 7.6 mph12.2 kmh 30.21 in1023.0 mb 0.00 in0.0 mm 0.00 in0.0 mm 0.00 in0.0 mm
09:25 AM 53.6°F12.0°C 46.9°F8.3°C 78% 5.9 mph E9.5 kmh E 7.6 mph12.2 kmh 30.22 in1023.4 mb 0.00 in0.0 mm 0.00 in0.0 mm 0.00 in0.0 mm
09:30 AM 54.5°F12.5°C 47.4°F8.6°C 77% 6.0 mph E9.7 kmh E 7.6 mph12.2 kmh 30.21 in1023.0 mb 0.00 in0.0 mm 0.00 in0.0 mm 0.00 in0.0 mm
09:35 AM 55.2°F12.9°C 48.1°F8.9°C 77% 5.3 mph ESE8.5 kmh ESE 7.6 mph12.2 kmh 30.21 in1023.0 mb 0.00 in0.0 mm 0.00 in0.0 mm 0.00 in0.0 mm
09:40 AM 55.9°F13.3°C 48.1°F8.9°C 75% 4.6 mph ESE7.4 kmh ESE 7.6 mph12.2 kmh 30.21 in1023.0 mb 0.00 in0.0 mm 0.00 in0.0 mm 0.00 in0.0 mm
09:45 AM 56.1°F13.4°C 48.0°F8.9°C 74% 4.4 mph E7.1 kmh E 7.6 mph12.2 kmh 30.21 in1023.0 mb 0.00 in0.0 mm 0.00 in0.0 mm 0.00 in0.0 mm
09:50 AM 56.7°F13.7°C 48.1°F8.9°C 73% 4.1 mph E6.6 kmh E 6.0 mph9.7 kmh 30.21 in1023.0 mb 0.00 in0.0 mm 0.00 in0.0 mm 0.00 in0.0 mm
09:55 AM 57.0°F13.9°C 48.5°F9.2°C 73% 4.1 mph E6.6 kmh E 5.4 mph8.7 kmh 30.21 in1023.0 mb 0.00 in0.0 mm 0.00 in0.0 mm 0.00 in0.0 mm
10:00 AM 57.9°F14.4°C 49.0°F9.4°C 72% 3.5 mph ESE5.6 kmh ESE 4.5 mph7.2 kmh 30.21 in1023.0 mb 0.00 in0.0 mm 0.00 in0.0 mm 0.00 in0.0 mm
10:05 AM 58.1°F14.5°C 48.4°F9.1°C 70% 3.9 mph E6.3 kmh E 6.9 mph11.1 kmh 30.21 in1023.0 mb 0.00 in0.0 mm 0.00 in0.0 mm 0.00 in0.0 mm
10:10 AM 58.3°F14.6°C 48.6°F9.2°C 70% 4.2 mph E6.8 kmh E 6.9 mph11.1 kmh 30.21 in1023.0 mb 0.00 in0.0 mm 0.00 in0.0 mm 0.00 in0.0 mm
10:15 AM 58.5°F14.7°C 48.3°F9.1°C 69% 4.7 mph E7.6 kmh E 8.3 mph13.4 kmh 30.20 in1022.7 mb 0.00 in0.0 mm 0.00 in0.0 mm 0.00 in0.0 mm
10:20 AM 59.2°F15.1°C 49.0°F9.4°C 69% 5.3 mph E8.5 kmh E 8.3 mph13.4 kmh 30.20 in1022.7 mb 0.00 in0.0 mm 0.00 in0.0 mm 0.00 in0.0 mm
10:25 AM 59.9°F15.5°C 48.9°F9.4°C 67% 5.2 mph E8.4 kmh E 7.6 mph12.2 kmh 30.21 in1023.0 mb 0.00 in0.0 mm 0.00 in0.0 mm 0.00 in0.0 mm
10:30 AM 60.4°F15.8°C 48.6°F9.2°C 65% 4.8 mph E7.7 kmh E 6.9 mph11.1 kmh 30.20 in1022.7 mb 0.00 in0.0 mm 0.00 in0.0 mm 0.00 in0.0 mm
10:35 AM 61.3°F16.3°C 49.5°F9.7°C 65% 3.8 mph E6.1 kmh E 6.0 mph9.7 kmh 30.20 in1022.7 mb 0.00 in0.0 mm 0.00 in0.0 mm 0.00 in0.0 mm
10:40 AM 61.9°F16.6°C 49.6°F9.8°C 64% 3.8 mph E6.1 kmh E 6.0 mph9.7 kmh 30.20 in1022.7 mb 0.00 in0.0 mm 0.00 in0.0 mm 0.00 in0.0 mm
10:45 AM 61.9°F16.6°C 49.2°F9.6°C 63% 3.5 mph ENE5.6 kmh ENE 6.0 mph9.7 kmh 30.20 in1022.7 mb 0.00 in0.0 mm 0.00 in0.0 mm 0.00 in0.0 mm
10:50 AM 62.4°F16.9°C 49.7°F9.8°C 63% 3.0 mph NW4.8 kmh NW 5.4 mph8.7 kmh 30.20 in1022.7 mb 0.00 in0.0 mm 0.00 in0.0 mm 0.00 in0.0 mm
10:55 AM 62.2°F16.8°C 49.5°F9.7°C 63% 3.1 mph NW5.0 kmh NW 5.4 mph8.7 kmh 30.20 in1022.7 mb 0.00 in0.0 mm 0.00 in0.0 mm 0.00 in0.0 mm
11:00 AM 62.1°F16.7°C 49.3°F9.6°C 63% 2.8 mph N4.5 kmh N 5.4 mph8.7 kmh 30.20 in1022.7 mb 0.00 in0.0 mm 0.00 in0.0 mm 0.00 in0.0 mm
11:05 AM 62.2°F16.8°C 49.5°F9.7°C 63% 3.2 mph N5.1 kmh N 5.4 mph8.7 kmh 30.20 in1022.7 mb 0.00 in0.0 mm 0.00 in0.0 mm 0.00 in0.0 mm
11:10 AM 62.2°F16.8°C 49.1°F9.5°C 62% 3.6 mph NNW5.8 kmh NNW 5.4 mph8.7 kmh 30.20 in1022.7 mb 0.00 in0.0 mm 0.00 in0.0 mm 0.00 in0.0 mm
11:15 AM 63.0°F17.2°C 49.8°F9.9°C 62% 3.2 mph NW5.1 kmh NW 4.5 mph7.2 kmh 30.20 in1022.7 mb 0.00 in0.0 mm 0.00 in0.0 mm 0.00 in0.0 mm
11:20 AM 62.2°F16.8°C 47.7°F8.7°C 59% 4.4 mph NW7.1 kmh NW 7.6 mph12.2 kmh 30.20 in1022.7 mb 0.00 in0.0 mm 0.00 in0.0 mm 0.00 in0.0 mm
11:25 AM 62.4°F16.9°C 48.4°F9.1°C 60% 4.9 mph NW7.9 kmh NW 7.6 mph12.2 kmh 30.20 in1022.7 mb 0.00 in0.0 mm 0.00 in0.0 mm 0.00 in0.0 mm
11:30 AM 63.5°F17.5°C 49.8°F9.9°C 61% 3.6 mph NW5.8 kmh NW 7.6 mph12.2 kmh 30.20 in1022.7 mb 0.00 in0.0 mm 0.00 in0.0 mm 0.00 in0.0 mm
11:35 AM 63.3°F17.4°C 47.8°F8.8°C 57% 4.6 mph NW7.4 kmh NW 6.9 mph11.1 kmh 30.19 in1022.4 mb 0.00 in0.0 mm 0.00 in0.0 mm 0.00 in0.0 mm
11:40 AM 63.0°F17.2°C 48.4°F9.1°C 59% 5.9 mph NW9.5 kmh NW 6.9 mph11.1 kmh 30.19 in1022.4 mb 0.00 in0.0 mm 0.00 in0.0 mm 0.00 in0.0 mm
11:45 AM 63.3°F17.4°C 48.3°F9.1°C 58% 5.5 mph NW8.9 kmh NW 6.9 mph11.1 kmh 30.19 in1022.4 mb 0.00 in0.0 mm 0.00 in0.0 mm 0.00 in0.0 mm
11:50 AM 63.1°F17.3°C 48.1°F8.9°C 58% 5.4 mph W8.7 kmh W 7.6 mph12.2 kmh 30.19 in1022.4 mb 0.00 in0.0 mm 0.00 in0.0 mm 0.00 in0.0 mm
11:55 AM 63.7°F17.6°C 48.6°F9.2°C 58% 5.1 mph WNW8.2 kmh WNW 7.6 mph12.2 kmh 30.19 in1022.4 mb 0.00 in0.0 mm 0.00 in0.0 mm 0.00 in0.0 mm
12:00 PM 64.6°F18.1°C 48.1°F8.9°C 55% 5.5 mph WNW8.9 kmh WNW 7.6 mph12.2 kmh 30.19 in1022.4 mb 0.00 in0.0 mm 0.00 in0.0 mm 0.00 in0.0 mm
12:05 PM 64.6°F18.1°C 49.5°F9.7°C 58% 6.2 mph NW10.0 kmh NW 7.6 mph12.2 kmh 30.18 in1022.0 mb 0.00 in0.0 mm 0.00 in0.0 mm 0.00 in0.0 mm
12:10 PM 64.9°F18.3°C 49.8°F9.9°C 58% 6.1 mph NW9.8 kmh NW 7.6 mph12.2 kmh 30.18 in1022.0 mb 0.00 in0.0 mm 0.00 in0.0 mm 0.00 in0.0 mm
12:15 PM 64.4°F18.0°C 49.3°F9.6°C 58% 6.0 mph NW9.7 kmh NW 7.6 mph12.2 kmh 30.18 in1022.0 mb 0.00 in0.0 mm 0.00 in0.0 mm 0.00 in0.0 mm
12:20 PM 64.9°F18.3°C 50.3°F10.2°C 59% 4.8 mph N7.7 kmh N 7.6 mph12.2 kmh 30.18 in1022.0 mb 0.00 in0.0 mm 0.00 in0.0 mm 0.00 in0.0 mm
12:25 PM 65.7°F18.7°C 51.4°F10.8°C 60% 3.8 mph NNW6.1 kmh NNW 5.4 mph8.7 kmh 30.18 in1022.0 mb 0.00 in0.0 mm 0.00 in0.0 mm 0.00 in0.0 mm
12:30 PM 66.6°F19.2°C 50.9°F10.5°C 57% 5.0 mph NW8.0 kmh NW 8.3 mph13.4 kmh 30.17 in1021.7 mb 0.00 in0.0 mm 0.00 in0.0 mm 0.00 in0.0 mm
12:35 PM 66.9°F19.4°C 50.7°F10.4°C 56% 5.4 mph NW8.7 kmh NW 8.3 mph13.4 kmh 30.17 in1021.7 mb 0.00 in0.0 mm 0.00 in0.0 mm 0.00 in0.0 mm
12:40 PM 67.1°F19.5°C 50.9°F10.5°C 56% 6.3 mph WNW10.1 kmh WNW 9.2 mph14.8 kmh 30.17 in1021.7 mb 0.00 in0.0 mm 0.00 in0.0 mm 0.00 in0.0 mm
12:45 PM 66.9°F19.4°C 50.2°F10.1°C 55% 7.0 mph WNW11.3 kmh WNW 10.7 mph17.2 kmh 30.17 in1021.7 mb 0.00 in0.0 mm 0.00 in0.0 mm 0.00 in0.0 mm
12:50 PM 66.4°F19.1°C 49.7°F9.8°C 55% 5.4 mph NW8.7 kmh NW 10.7 mph17.2 kmh 30.16 in1021.3 mb 0.00 in0.0 mm 0.00 in0.0 mm 0.00 in0.0 mm
12:55 PM 65.1°F18.4°C 48.6°F9.2°C 55% 4.6 mph WNW7.4 kmh WNW 6.9 mph11.1 kmh 30.16 in1021.3 mb 0.00 in0.0 mm 0.00 in0.0 mm 0.00 in0.0 mm
01:00 PM 64.6°F18.1°C 48.5°F9.2°C 56% 5.7 mph WNW9.2 kmh WNW 9.2 mph14.8 kmh 30.16 in1021.3 mb 0.00 in0.0 mm 0.00 in0.0 mm 0.00 in0.0 mm
01:05 PM 65.3°F18.5°C 49.2°F9.6°C 56% 6.7 mph W10.8 kmh W 9.2 mph14.8 kmh 30.16 in1021.3 mb 0.00 in0.0 mm 0.00 in0.0 mm 0.00 in0.0 mm
01:10 PM 66.2°F19.0°C 50.1°F10.1°C 56% 6.0 mph W9.7 kmh W 9.8 mph15.8 kmh 30.15 in1021.0 mb 0.00 in0.0 mm 0.00 in0.0 mm 0.00 in0.0 mm
01:15 PM 65.8°F18.8°C 49.2°F9.6°C 55% 7.1 mph WNW11.4 kmh WNW 11.4 mph18.3 kmh 30.16 in1021.3 mb 0.00 in0.0 mm 0.00 in0.0 mm 0.00 in0.0 mm
01:20 PM 65.8°F18.8°C 49.7°F9.8°C 56% 7.3 mph NW11.7 kmh NW 11.4 mph18.3 kmh 30.15 in1021.0 mb 0.00 in0.0 mm 0.00 in0.0 mm 0.00 in0.0 mm
01:25 PM 66.0°F18.9°C 49.9°F9.9°C 56% 7.2 mph NW11.6 kmh NW 10.7 mph17.2 kmh 30.15 in1021.0 mb 0.00 in0.0 mm 0.00 in0.0 mm 0.00 in0.0 mm
01:30 PM 66.4°F19.1°C 49.7°F9.8°C 55% 7.8 mph NW12.6 kmh NW 13.6 mph21.9 kmh 30.15 in1021.0 mb 0.00 in0.0 mm 0.00 in0.0 mm 0.00 in0.0 mm
01:35 PM 65.8°F18.8°C 48.7°F9.3°C 54% 8.5 mph NW13.7 kmh NW 13.6 mph21.9 kmh 30.16 in1021.3 mb 0.00 in0.0 mm 0.00 in0.0 mm 0.00 in0.0 mm
01:40 PM 66.0°F18.9°C 48.9°F9.4°C 54% 8.5 mph NW13.7 kmh NW 13.6 mph21.9 kmh 30.15 in1021.0 mb 0.00 in0.0 mm 0.00 in0.0 mm 0.00 in0.0 mm
01:45 PM 66.2°F19.0°C 48.6°F9.2°C 53% 7.5 mph NW12.1 kmh NW 9.8 mph15.8 kmh 30.15 in1021.0 mb 0.00 in0.0 mm 0.00 in0.0 mm 0.00 in0.0 mm
01:50 PM 66.4°F19.1°C 48.8°F9.3°C 53% 8.4 mph NW13.5 kmh NW 11.4 mph18.3 kmh 30.15 in1021.0 mb 0.00 in0.0 mm 0.00 in0.0 mm 0.00 in0.0 mm
01:55 PM 66.2°F19.0°C 48.6°F9.2°C 53% 9.4 mph NW15.1 kmh NW 12.1 mph19.5 kmh 30.14 in1020.7 mb 0.00 in0.0 mm 0.00 in0.0 mm 0.00 in0.0 mm
02:00 PM 65.7°F18.7°C 48.6°F9.2°C 54% 8.7 mph NW14.0 kmh NW 12.1 mph19.5 kmh 30.15 in1021.0 mb 0.00 in0.0 mm 0.00 in0.0 mm 0.00 in0.0 mm
02:05 PM 65.7°F18.7°C 49.1°F9.5°C 55% 7.5 mph NW12.1 kmh NW 9.8 mph15.8 kmh 30.14 in1020.7 mb 0.00 in0.0 mm 0.00 in0.0 mm 0.00 in0.0 mm
02:10 PM 65.1°F18.4°C 48.1°F8.9°C 54% 8.1 mph NW13.0 kmh NW 11.4 mph18.3 kmh 30.14 in1020.7 mb 0.00 in0.0 mm 0.00 in0.0 mm 0.00 in0.0 mm
02:15 PM 64.6°F18.1°C 48.5°F9.2°C 56% 7.7 mph NW12.4 kmh NW 11.4 mph18.3 kmh 30.14 in1020.7 mb 0.00 in0.0 mm 0.00 in0.0 mm 0.00 in0.0 mm
02:20 PM 65.8°F18.8°C 49.2°F9.6°C 55% 6.3 mph WNW10.1 kmh WNW 9.8 mph15.8 kmh 30.14 in1020.7 mb 0.00 in0.0 mm 0.00 in0.0 mm 0.00 in0.0 mm
02:25 PM 65.8°F18.8°C 49.2°F9.6°C 55% 7.4 mph NW11.9 kmh NW 10.7 mph17.2 kmh 30.14 in1020.7 mb 0.00 in0.0 mm 0.00 in0.0 mm 0.00 in0.0 mm
02:30 PM 64.4°F18.0°C 48.4°F9.1°C 56% 7.3 mph NW11.7 kmh NW 10.7 mph17.2 kmh 30.14 in1020.7 mb 0.00 in0.0 mm 0.00 in0.0 mm 0.00 in0.0 mm
02:35 PM 64.8°F18.2°C 48.7°F9.3°C 56% 6.3 mph W10.1 kmh W 7.6 mph12.2 kmh 30.14 in1020.7 mb 0.00 in0.0 mm 0.00 in0.0 mm 0.00 in0.0 mm
02:40 PM 65.3°F18.5°C 49.2°F9.6°C 56% 6.6 mph W10.6 kmh W 7.6 mph12.2 kmh 30.14 in1020.7 mb 0.00 in0.0 mm 0.00 in0.0 mm 0.00 in0.0 mm
02:45 PM 66.0°F18.9°C 49.9°F9.9°C 56% 5.4 mph W8.7 kmh W 8.3 mph13.4 kmh 30.14 in1020.7 mb 0.00 in0.0 mm 0.00 in0.0 mm 0.00 in0.0 mm
02:50 PM 66.6°F19.2°C 49.9°F9.9°C 55% 5.0 mph W8.0 kmh W 8.3 mph13.4 kmh 30.14 in1020.7 mb 0.00 in0.0 mm 0.00 in0.0 mm 0.00 in0.0 mm
02:55 PM 66.9°F19.4°C 49.3°F9.6°C 53% 6.7 mph NW10.8 kmh NW 10.7 mph17.2 kmh 30.14 in1020.7 mb 0.00 in0.0 mm 0.00 in0.0 mm 0.00 in0.0 mm
03:00 PM 66.2°F19.0°C 49.1°F9.5°C 54% 7.6 mph NW12.2 kmh NW 10.7 mph17.2 kmh 30.14 in1020.7 mb 0.00 in0.0 mm 0.00 in0.0 mm 0.00 in0.0 mm
03:05 PM 65.8°F18.8°C 49.2°F9.6°C 55% 8.1 mph NW13.0 kmh NW 10.7 mph17.2 kmh 30.14 in1020.7 mb 0.00 in0.0 mm 0.00 in0.0 mm 0.00 in0.0 mm
03:10 PM 65.7°F18.7°C 49.1°F9.5°C 55% 7.7 mph WNW12.4 kmh WNW 10.7 mph17.2 kmh 30.14 in1020.7 mb 0.00 in0.0 mm 0.00 in0.0 mm 0.00 in0.0 mm
03:15 PM 65.5°F18.6°C 49.4°F9.7°C 56% 5.8 mph NW9.3 kmh NW 9.2 mph14.8 kmh 30.14 in1020.7 mb 0.00 in0.0 mm 0.00 in0.0 mm 0.00 in0.0 mm
03:20 PM 65.3°F18.5°C 48.2°F9.0°C 54% 6.0 mph NW9.7 kmh NW 12.1 mph19.5 kmh 30.14 in1020.7 mb 0.00 in0.0 mm 0.00 in0.0 mm 0.00 in0.0 mm
03:25 PM 64.9°F18.3°C 48.4°F9.1°C 55% 7.3 mph WNW11.7 kmh WNW 12.1 mph19.5 kmh 30.14 in1020.7 mb 0.00 in0.0 mm 0.00 in0.0 mm 0.00 in0.0 mm
03:30 PM 64.9°F18.3°C 48.4°F9.1°C 55% 7.9 mph WNW12.7 kmh WNW 12.1 mph19.5 kmh 30.13 in1020.3 mb 0.00 in0.0 mm 0.00 in0.0 mm 0.00 in0.0 mm
03:35 PM 65.1°F18.4°C 49.1°F9.5°C 56% 7.2 mph WNW11.6 kmh WNW 9.2 mph14.8 kmh 30.13 in1020.3 mb 0.00 in0.0 mm 0.00 in0.0 mm 0.00 in0.0 mm
03:40 PM 64.6°F18.1°C 49.0°F9.4°C 57% 6.8 mph NW10.9 kmh NW 9.2 mph14.8 kmh 30.13 in1020.3 mb 0.00 in0.0 mm 0.00 in0.0 mm 0.00 in0.0 mm
03:45 PM 64.8°F18.2°C 49.2°F9.6°C 57% 6.9 mph NW11.1 kmh NW 9.2 mph14.8 kmh 30.13 in1020.3 mb 0.00 in0.0 mm 0.00 in0.0 mm 0.00 in0.0 mm
03:50 PM 64.4°F18.0°C 48.9°F9.4°C 57% 6.6 mph NW10.6 kmh NW 9.2 mph14.8 kmh 30.13 in1020.3 mb 0.00 in0.0 mm 0.00 in0.0 mm 0.00 in0.0 mm
03:55 PM 64.2°F17.9°C 48.7°F9.3°C 57% 6.9 mph NW11.1 kmh NW 9.2 mph14.8 kmh 30.13 in1020.3 mb 0.00 in0.0 mm 0.00 in0.0 mm 0.00 in0.0 mm
04:00 PM 64.4°F18.0°C 48.9°F9.4°C 57% 6.5 mph NW10.5 kmh NW 9.2 mph14.8 kmh 30.13 in1020.3 mb 0.00 in0.0 mm 0.00 in0.0 mm 0.00 in0.0 mm
04:05 PM 64.0°F17.8°C 48.5°F9.2°C 57% 5.8 mph NW9.3 kmh NW 7.6 mph12.2 kmh 30.13 in1020.3 mb 0.00 in0.0 mm 0.00 in0.0 mm 0.00 in0.0 mm
04:10 PM 63.7°F17.6°C 47.7°F8.7°C 56% 6.5 mph NNW10.5 kmh NNW 7.6 mph12.2 kmh 30.12 in1020.0 mb 0.00 in0.0 mm 0.00 in0.0 mm 0.00 in0.0 mm
04:15 PM 63.5°F17.5°C 48.0°F8.9°C 57% 7.6 mph NW12.2 kmh NW 10.7 mph17.2 kmh 30.12 in1020.0 mb 0.00 in0.0 mm 0.00 in0.0 mm 0.00 in0.0 mm
04:20 PM 63.3°F17.4°C 47.8°F8.8°C 57% 7.8 mph NW12.6 kmh NW 10.7 mph17.2 kmh 30.12 in1020.0 mb 0.00 in0.0 mm 0.00 in0.0 mm 0.00 in0.0 mm
04:25 PM 63.0°F17.2°C 48.0°F8.9°C 58% 7.2 mph NW11.6 kmh NW 9.2 mph14.8 kmh 30.13 in1020.3 mb 0.00 in0.0 mm 0.00 in0.0 mm 0.00 in0.0 mm
04:30 PM 62.4°F16.9°C 47.9°F8.8°C 59% 6.4 mph NW10.3 kmh NW 8.3 mph13.4 kmh 30.13 in1020.3 mb 0.00 in0.0 mm 0.00 in0.0 mm 0.00 in0.0 mm
04:35 PM 62.2°F16.8°C 47.7°F8.7°C 59% 6.4 mph NW10.3 kmh NW 7.6 mph12.2 kmh 30.13 in1020.3 mb 0.00 in0.0 mm 0.00 in0.0 mm 0.00 in0.0 mm
04:40 PM 62.2°F16.8°C 48.2°F9.0°C 60% 6.0 mph NW9.7 kmh NW 7.6 mph12.2 kmh 30.13 in1020.3 mb 0.00 in0.0 mm 0.00 in0.0 mm 0.00 in0.0 mm
04:45 PM 61.9°F16.6°C 47.9°F8.8°C 60% 5.5 mph NW8.9 kmh NW 7.6 mph12.2 kmh 30.12 in1020.0 mb 0.00 in0.0 mm 0.00 in0.0 mm 0.00 in0.0 mm
04:50 PM 61.5°F16.4°C 48.0°F8.9°C 61% 5.6 mph NW9.0 kmh NW 7.6 mph12.2 kmh 30.13 in1020.3 mb 0.00 in0.0 mm 0.00 in0.0 mm 0.00 in0.0 mm
04:55 PM 61.2°F16.2°C 47.6°F8.7°C 61% 6.1 mph NW9.8 kmh NW 7.6 mph12.2 kmh 30.13 in1020.3 mb 0.00 in0.0 mm 0.00 in0.0 mm 0.00 in0.0 mm
05:00 PM 60.8°F16.0°C 47.3°F8.5°C 61% 6.4 mph WNW10.3 kmh WNW 8.3 mph13.4 kmh 30.13 in1020.3 mb 0.00 in0.0 mm 0.00 in0.0 mm 0.00 in0.0 mm
05:05 PM 60.3°F15.7°C 47.6°F8.7°C 63% 6.4 mph NW10.3 kmh NW 8.3 mph13.4 kmh 30.13 in1020.3 mb 0.00 in0.0 mm 0.00 in0.0 mm 0.00 in0.0 mm
05:10 PM 59.9°F15.5°C 47.7°F8.7°C 64% 5.9 mph NW9.5 kmh NW 7.6 mph12.2 kmh 30.14 in1020.7 mb 0.00 in0.0 mm 0.00 in0.0 mm 0.00 in0.0 mm
05:15 PM 59.2°F15.1°C 47.4°F8.6°C 65% 6.3 mph NW10.1 kmh NW 7.6 mph12.2 kmh 30.13 in1020.3 mb 0.00 in0.0 mm 0.00 in0.0 mm 0.00 in0.0 mm
05:20 PM 58.8°F14.9°C 47.5°F8.6°C 66% 7.4 mph NW11.9 kmh NW 9.8 mph15.8 kmh 30.13 in1020.3 mb 0.00 in0.0 mm 0.00 in0.0 mm 0.00 in0.0 mm
05:25 PM 58.5°F14.7°C 47.6°F8.7°C 67% 6.5 mph WNW10.5 kmh WNW 9.8 mph15.8 kmh 30.14 in1020.7 mb 0.00 in0.0 mm 0.00 in0.0 mm 0.00 in0.0 mm
05:30 PM 58.1°F14.5°C 47.2°F8.4°C 67% 5.2 mph NW8.4 kmh NW 7.6 mph12.2 kmh 30.14 in1020.7 mb 0.00 in0.0 mm 0.00 in0.0 mm 0.00 in0.0 mm
05:35 PM 57.7°F14.3°C 47.3°F8.5°C 68% 4.7 mph NW7.6 kmh NW 6.0 mph9.7 kmh 30.14 in1020.7 mb 0.00 in0.0 mm 0.00 in0.0 mm 0.00 in0.0 mm
05:40 PM 57.6°F14.2°C 47.1°F8.4°C 68% 3.9 mph NW6.3 kmh NW 6.0 mph9.7 kmh 30.14 in1020.7 mb 0.00 in0.0 mm 0.00 in0.0 mm 0.00 in0.0 mm
05:45 PM 57.4°F14.1°C 47.3°F8.5°C 69% 3.4 mph NW5.5 kmh NW 5.4 mph8.7 kmh 30.14 in1020.7 mb 0.00 in0.0 mm 0.00 in0.0 mm 0.00 in0.0 mm
05:50 PM 57.0°F13.9°C 47.3°F8.5°C 70% 3.2 mph NW5.1 kmh NW 5.4 mph8.7 kmh 30.14 in1020.7 mb 0.00 in0.0 mm 0.00 in0.0 mm 0.00 in0.0 mm
05:55 PM 56.7°F13.7°C 47.4°F8.6°C 71% 3.6 mph NW5.8 kmh NW 5.4 mph8.7 kmh 30.14 in1020.7 mb 0.00 in0.0 mm 0.00 in0.0 mm 0.00 in0.0 mm
06:00 PM 56.5°F13.6°C 47.2°F8.4°C 71% 4.0 mph NW6.4 kmh NW 5.4 mph8.7 kmh 30.15 in1021.0 mb 0.00 in0.0 mm 0.00 in0.0 mm 0.00 in0.0 mm
06:05 PM 56.3°F13.5°C 47.4°F8.6°C 72% 3.2 mph NW5.1 kmh NW 4.5 mph7.2 kmh 30.15 in1021.0 mb 0.00 in0.0 mm 0.00 in0.0 mm 0.00 in0.0 mm
06:10 PM 55.9°F13.3°C 47.4°F8.6°C 73% 2.6 mph WNW4.2 kmh WNW 4.5 mph7.2 kmh 30.15 in1021.0 mb 0.00 in0.0 mm 0.00 in0.0 mm 0.00 in0.0 mm
06:15 PM 55.8°F13.2°C 47.2°F8.4°C 73% 2.6 mph WNW4.2 kmh WNW 3.8 mph6.1 kmh 30.15 in1021.0 mb 0.00 in0.0 mm 0.00 in0.0 mm 0.00 in0.0 mm
06:20 PM 55.4°F13.0°C 47.3°F8.5°C 74% 2.3 mph NW3.7 kmh NW 3.1 mph5.0 kmh 30.16 in1021.3 mb 0.00 in0.0 mm 0.00 in0.0 mm 0.00 in0.0 mm
06:25 PM 55.2°F12.9°C 47.4°F8.6°C 75% 2.2 mph NW3.5 kmh NW 3.1 mph5.0 kmh 30.16 in1021.3 mb 0.00 in0.0 mm 0.00 in0.0 mm 0.00 in0.0 mm
06:30 PM 54.9°F12.7°C 47.4°F8.6°C 76% 2.4 mph NW3.9 kmh NW 3.1 mph5.0 kmh 30.16 in1021.3 mb 0.00 in0.0 mm 0.00 in0.0 mm 0.00 in0.0 mm
06:35 PM 54.7°F12.6°C 47.3°F8.5°C 76% 2.2 mph WNW3.5 kmh WNW 3.1 mph5.0 kmh 30.16 in1021.3 mb 0.00 in0.0 mm 0.00 in0.0 mm 0.00 in0.0 mm
06:40 PM 54.3°F12.4°C 46.9°F8.3°C 76% 2.1 mph WSW3.4 kmh WSW 3.1 mph5.0 kmh 30.17 in1021.7 mb 0.00 in0.0 mm 0.00 in0.0 mm 0.00 in0.0 mm
06:45 PM 54.1°F12.3°C 47.1°F8.4°C 77% 2.7 mph WSW4.3 kmh WSW 3.8 mph6.1 kmh 30.17 in1021.7 mb 0.00 in0.0 mm 0.00 in0.0 mm 0.00 in0.0 mm
06:50 PM 53.8°F12.1°C 46.7°F8.2°C 77% 3.0 mph WSW4.8 kmh WSW 3.8 mph6.1 kmh 30.17 in1021.7 mb 0.00 in0.0 mm 0.00 in0.0 mm 0.00 in0.0 mm
06:55 PM 53.8°F12.1°C 46.7°F8.2°C 77% 3.2 mph W5.1 kmh W 3.8 mph6.1 kmh 30.17 in1021.7 mb 0.00 in0.0 mm 0.00 in0.0 mm 0.00 in0.0 mm
07:00 PM 54.1°F12.3°C 47.1°F8.4°C 77% 2.7 mph W4.3 kmh W 3.8 mph6.1 kmh 30.17 in1021.7 mb 0.00 in0.0 mm 0.00 in0.0 mm 0.00 in0.0 mm
07:05 PM 53.6°F12.0°C 46.6°F8.1°C 77% 2.1 mph W3.4 kmh W 3.1 mph5.0 kmh 30.17 in1021.7 mb 0.00 in0.0 mm 0.00 in0.0 mm 0.00 in0.0 mm
07:10 PM 53.8°F12.1°C 46.7°F8.2°C 77% 1.8 mph W2.9 kmh W 2.2 mph3.5 kmh 30.17 in1021.7 mb 0.00 in0.0 mm 0.00 in0.0 mm 0.00 in0.0 mm
07:15 PM 53.8°F12.1°C 46.7°F8.2°C 77% 1.7 mph W2.7 kmh W 2.2 mph3.5 kmh 30.17 in1021.7 mb 0.00 in0.0 mm 0.00 in0.0 mm 0.00 in0.0 mm
07:20 PM 53.6°F12.0°C 46.6°F8.1°C 77% 2.0 mph W3.2 kmh W 3.1 mph5.0 kmh 30.17 in1021.7 mb 0.00 in0.0 mm 0.00 in0.0 mm 0.00 in0.0 mm
07:25 PM 53.6°F12.0°C 46.6°F8.1°C 77% 1.8 mph W2.9 kmh W 3.1 mph5.0 kmh 30.18 in1022.0 mb 0.00 in0.0 mm 0.00 in0.0 mm 0.00 in0.0 mm
07:30 PM 53.4°F11.9°C 46.4°F8.0°C 77% 0.7 mph W1.1 kmh W 2.2 mph3.5 kmh 30.18 in1022.0 mb 0.00 in0.0 mm 0.00 in0.0 mm 0.00 in0.0 mm
07:35 PM 53.2°F11.8°C 46.6°F8.1°C 78% 0.9 mph NW1.4 kmh NW 2.2 mph3.5 kmh 30.18 in1022.0 mb 0.00 in0.0 mm 0.00 in0.0 mm 0.00 in0.0 mm
07:40 PM 52.7°F11.5°C 46.0°F7.8°C 78% 1.5 mph WNW2.4 kmh WNW 2.2 mph3.5 kmh 30.18 in1022.0 mb 0.00 in0.0 mm 0.00 in0.0 mm 0.00 in0.0 mm
07:45 PM 52.7°F11.5°C 46.4°F8.0°C 79% 1.2 mph W1.9 kmh W 1.6 mph2.6 kmh 30.18 in1022.0 mb 0.00 in0.0 mm 0.00 in0.0 mm 0.00 in0.0 mm
07:50 PM 52.3°F11.3°C 46.0°F7.8°C 79% 1.3 mph W2.1 kmh W 3.1 mph5.0 kmh 30.18 in1022.0 mb 0.00 in0.0 mm 0.00 in0.0 mm 0.00 in0.0 mm
07:55 PM 52.3°F11.3°C 46.0°F7.8°C 79% 1.7 mph WNW2.7 kmh WNW 3.1 mph5.0 kmh 30.18 in1022.0 mb 0.00 in0.0 mm 0.00 in0.0 mm 0.00 in0.0 mm
08:00 PM 52.3°F11.3°C 46.0°F7.8°C 79% 1.5 mph WNW2.4 kmh WNW 3.1 mph5.0 kmh 30.19 in1022.4 mb 0.00 in0.0 mm 0.00 in0.0 mm 0.00 in0.0 mm
08:05 PM 52.0°F11.1°C 45.3°F7.4°C 78% 1.2 mph W1.9 kmh W 2.2 mph3.5 kmh 30.18 in1022.0 mb 0.00 in0.0 mm 0.00 in0.0 mm 0.00 in0.0 mm
08:10 PM 51.8°F11.0°C 45.5°F7.5°C 79% 1.3 mph WNW2.1 kmh WNW 2.2 mph3.5 kmh 30.18 in1022.0 mb 0.00 in0.0 mm 0.00 in0.0 mm 0.00 in0.0 mm
08:15 PM 51.6°F10.9°C 45.3°F7.4°C 79% 0.9 mph NW1.4 kmh NW 2.2 mph3.5 kmh 30.18 in1022.0 mb 0.00 in0.0 mm 0.00 in0.0 mm 0.00 in0.0 mm
08:20 PM 51.4°F10.8°C 45.2°F7.3°C 79% 0.4 mph NNW0.6 kmh NNW 1.6 mph2.6 kmh 30.18 in1022.0 mb 0.00 in0.0 mm 0.00 in0.0 mm 0.00 in0.0 mm
08:25 PM 51.3°F10.7°C 45.0°F7.2°C 79% 0.5 mph WNW0.8 kmh WNW 1.6 mph2.6 kmh 30.18 in1022.0 mb 0.00 in0.0 mm 0.00 in0.0 mm 0.00 in0.0 mm
08:30 PM 50.7°F10.4°C 44.5°F6.9°C 79% 0.8 mph W1.3 kmh W 1.6 mph2.6 kmh 30.19 in1022.4 mb 0.00 in0.0 mm 0.00 in0.0 mm 0.00 in0.0 mm
08:35 PM 50.7°F10.4°C 44.8°F7.1°C 80% 0.7 mph WNW1.1 kmh WNW 1.6 mph2.6 kmh 30.18 in1022.0 mb 0.00 in0.0 mm 0.00 in0.0 mm 0.00 in0.0 mm
08:40 PM 50.5°F10.3°C 44.6°F7.0°C 80% 0.4 mph NW0.6 kmh NW 1.6 mph2.6 kmh 30.19 in1022.4 mb 0.00 in0.0 mm 0.00 in0.0 mm 0.00 in0.0 mm
08:45 PM 49.8°F9.9°C 43.9°F6.6°C 80% 0.7 mph WSW1.1 kmh WSW 1.6 mph2.6 kmh 30.19 in1022.4 mb 0.00 in0.0 mm 0.00 in0.0 mm 0.00 in0.0 mm
08:50 PM 49.8°F9.9°C 44.2°F6.8°C 81% 0.8 mph W1.3 kmh W 1.6 mph2.6 kmh 30.19 in1022.4 mb 0.00 in0.0 mm 0.00 in0.0 mm 0.00 in0.0 mm
08:55 PM 49.8°F9.9°C 44.2°F6.8°C 81% 0.8 mph NW1.3 kmh NW 1.6 mph2.6 kmh 30.19 in1022.4 mb 0.00 in0.0 mm 0.00 in0.0 mm 0.00 in0.0 mm
09:00 PM 49.6°F9.8°C 43.7°F6.5°C 80% 0.8 mph NW1.3 kmh NW 1.6 mph2.6 kmh 30.19 in1022.4 mb 0.00 in0.0 mm 0.00 in0.0 mm 0.00 in0.0 mm
09:05 PM 49.5°F9.7°C 43.6°F6.4°C 80% 0.8 mph WNW1.3 kmh WNW 2.2 mph3.5 kmh 30.19 in1022.4 mb 0.00 in0.0 mm 0.00 in0.0 mm 0.00 in0.0 mm
09:10 PM 48.9°F9.4°C 43.0°F6.1°C 80% 0.8 mph NW1.3 kmh NW 2.2 mph3.5 kmh 30.19 in1022.4 mb 0.00 in0.0 mm 0.00 in0.0 mm 0.00 in0.0 mm
09:15 PM 48.9°F9.4°C 43.4°F6.3°C 81% 0.4 mph WNW0.6 kmh WNW 1.6 mph2.6 kmh 30.19 in1022.4 mb 0.00 in0.0 mm 0.00 in0.0 mm 0.00 in0.0 mm
09:20 PM 48.6°F9.2°C 43.0°F6.1°C 81% 0.2 mph W0.3 kmh W 1.6 mph2.6 kmh 30.18 in1022.0 mb 0.00 in0.0 mm 0.00 in0.0 mm 0.00 in0.0 mm
09:25 PM 48.2°F9.0°C 42.6°F5.9°C 81% 0.1 mph WSW0.2 kmh WSW 0.7 mph1.1 kmh 30.19 in1022.4 mb 0.00 in0.0 mm 0.00 in0.0 mm 0.00 in0.0 mm
09:30 PM 47.8°F8.8°C 42.6°F5.9°C 82% 0.3 mph SW0.5 kmh SW 0.7 mph1.1 kmh 30.19 in1022.4 mb 0.00 in0.0 mm 0.00 in0.0 mm 0.00 in0.0 mm
09:35 PM 47.7°F8.7°C 42.4°F5.8°C 82% 0.8 mph WSW1.3 kmh WSW 1.6 mph2.6 kmh 30.19 in1022.4 mb 0.00 in0.0 mm 0.00 in0.0 mm 0.00 in0.0 mm
09:40 PM 47.7°F8.7°C 42.4°F5.8°C 82% 0.9 mph WSW1.4 kmh WSW 1.6 mph2.6 kmh 30.19 in1022.4 mb 0.00 in0.0 mm 0.00 in0.0 mm 0.00 in0.0 mm
09:45 PM 47.5°F8.6°C 42.6°F5.9°C 83% 0.5 mph WSW0.8 kmh WSW 1.6 mph2.6 kmh 30.19 in1022.4 mb 0.00 in0.0 mm 0.00 in0.0 mm 0.00 in0.0 mm
09:50 PM 47.3°F8.5°C 42.4°F5.8°C 83% 0.4 mph SSW0.6 kmh SSW 0.7 mph1.1 kmh 30.19 in1022.4 mb 0.00 in0.0 mm 0.00 in0.0 mm 0.00 in0.0 mm
09:55 PM 47.1°F8.4°C 42.2°F5.7°C 83% 0.7 mph S1.1 kmh S 0.7 mph1.1 kmh 30.19 in1022.4 mb 0.00 in0.0 mm 0.00 in0.0 mm 0.00 in0.0 mm
10:00 PM 46.9°F8.3°C 42.1°F5.6°C 83% 0.5 mph S0.8 kmh S 0.7 mph1.1 kmh 30.20 in1022.7 mb 0.00 in0.0 mm 0.00 in0.0 mm 0.00 in0.0 mm
10:05 PM 46.9°F8.3°C 42.1°F5.6°C 83% 0.2 mph S0.3 kmh S 0.7 mph1.1 kmh 30.20 in1022.7 mb 0.00 in0.0 mm 0.00 in0.0 mm 0.00 in0.0 mm
10:10 PM 46.8°F8.2°C 41.9°F5.5°C 83% 0.4 mph S0.6 kmh S 1.6 mph2.6 kmh 30.20 in1022.7 mb 0.00 in0.0 mm 0.00 in0.0 mm 0.00 in0.0 mm
10:15 PM 46.6°F8.1°C 41.7°F5.4°C 83% 0.9 mph S1.4 kmh S 1.6 mph2.6 kmh 30.20 in1022.7 mb 0.00 in0.0 mm 0.00 in0.0 mm 0.00 in0.0 mm
10:20 PM 46.6°F8.1°C 41.7°F5.4°C 83% 1.0 mph S1.6 kmh S 1.6 mph2.6 kmh 30.20 in1022.7 mb 0.00 in0.0 mm 0.00 in0.0 mm 0.00 in0.0 mm
10:25 PM 46.4°F8.0°C 41.5°F5.3°C 83% 0.7 mph S1.1 kmh S 1.6 mph2.6 kmh 30.20 in1022.7 mb 0.00 in0.0 mm 0.00 in0.0 mm 0.00 in0.0 mm
10:30 PM 46.2°F7.9°C 41.7°F5.4°C 84% 0.1 mph S0.2 kmh S 0.7 mph1.1 kmh 30.20 in1022.7 mb 0.00 in0.0 mm 0.00 in0.0 mm 0.00 in0.0 mm
10:35 PM 46.0°F7.8°C 41.2°F5.1°C 83% Calm Calm 0.7 mph1.1 kmh 30.20 in1022.7 mb 0.00 in0.0 mm 0.00 in0.0 mm 0.00 in0.0 mm
10:40 PM 45.9°F7.7°C 41.3°F5.2°C 84% 0.3 mph S0.5 kmh S 1.6 mph2.6 kmh 30.20 in1022.7 mb 0.00 in0.0 mm 0.00 in0.0 mm 0.00 in0.0 mm
10:45 PM 45.7°F7.6°C 41.1°F5.1°C 84% 0.9 mph S1.4 kmh S 1.6 mph2.6 kmh 30.20 in1022.7 mb 0.00 in0.0 mm 0.00 in0.0 mm 0.00 in0.0 mm
10:50 PM 45.5°F7.5°C 41.3°F5.2°C 85% 1.0 mph S1.6 kmh S 1.6 mph2.6 kmh 30.20 in1022.7 mb 0.00 in0.0 mm 0.00 in0.0 mm 0.00 in0.0 mm
10:55 PM 45.3°F7.4°C 41.1°F5.1°C 85% 0.8 mph S1.3 kmh S 1.6 mph2.6 kmh 30.20 in1022.7 mb 0.00 in0.0 mm 0.00 in0.0 mm 0.00 in0.0 mm
11:00 PM 45.3°F7.4°C 41.1°F5.1°C 85% 0.7 mph S1.1 kmh S 1.6 mph2.6 kmh 30.20 in1022.7 mb 0.00 in0.0 mm 0.00 in0.0 mm 0.00 in0.0 mm
11:05 PM 45.1°F7.3°C 40.9°F4.9°C 85% 0.4 mph S0.6 kmh S 1.6 mph2.6 kmh 30.19 in1022.4 mb 0.00 in0.0 mm 0.00 in0.0 mm 0.00 in0.0 mm
11:10 PM 45.0°F7.2°C 40.7°F4.8°C 85% 0.8 mph S1.3 kmh S 1.6 mph2.6 kmh 30.19 in1022.4 mb 0.00 in0.0 mm 0.00 in0.0 mm 0.00 in0.0 mm
11:15 PM 44.8°F7.1°C 40.6°F4.8°C 85% 1.0 mph S1.6 kmh S 1.6 mph2.6 kmh 30.20 in1022.7 mb 0.00 in0.0 mm 0.00 in0.0 mm 0.00 in0.0 mm
11:20 PM 44.4°F6.9°C 40.2°F4.6°C 85% 0.9 mph S1.4 kmh S 1.6 mph2.6 kmh 30.20 in1022.7 mb 0.00 in0.0 mm 0.00 in0.0 mm 0.00 in0.0 mm
11:25 PM 44.4°F6.9°C 40.2°F4.6°C 85% 1.0 mph S1.6 kmh S 1.6 mph2.6 kmh 30.20 in1022.7 mb 0.00 in0.0 mm 0.00 in0.0 mm 0.00 in0.0 mm
11:30 PM 44.2°F6.8°C 40.0°F4.4°C 85% 0.7 mph S1.1 kmh S 1.6 mph2.6 kmh 30.20 in1022.7 mb 0.00 in0.0 mm 0.00 in0.0 mm 0.00 in0.0 mm
11:35 PM 44.2°F6.8°C 40.3°F4.6°C 86% 0.9 mph S1.4 kmh S 1.6 mph2.6 kmh 30.20 in1022.7 mb 0.00 in0.0 mm 0.00 in0.0 mm 0.00 in0.0 mm
11:40 PM 44.1°F6.7°C 40.1°F4.5°C 86% 0.9 mph S1.4 kmh S 1.6 mph2.6 kmh 30.20 in1022.7 mb 0.00 in0.0 mm 0.00 in0.0 mm 0.00 in0.0 mm
11:45 PM 43.7°F6.5°C 39.8°F4.3°C 86% 0.7 mph S1.1 kmh S 1.6 mph2.6 kmh 30.20 in1022.7 mb 0.00 in0.0 mm 0.00 in0.0 mm 0.00 in0.0 mm
11:50 PM 43.9°F6.6°C 40.0°F4.4°C 86% 1.0 mph SE1.6 kmh SE 1.6 mph2.6 kmh 30.19 in1022.4 mb 0.00 in0.0 mm 0.00 in0.0 mm 0.00 in0.0 mm
11:55 PM 43.9°F6.6°C 40.0°F4.4°C 86% 1.0 mph SE1.6 kmh SE 1.6 mph2.6 kmh 30.19 in1022.4 mb 0.00 in0.0 mm 0.00 in0.0 mm 0.00 in0.0 mm